Time;durP1;ratioP1;P1;durP2;ratioP2;P2;SDS_P1;SDS_P2;PMS_P1;PMS_P2;Temp;Humidity;BMP_temperature;BMP_pressure;BME280_temperature;BME280_humidity;BME280_pressure;Samples;Min_cycle;Max_cycle;Signal;HPM_P1;HPM_P2
2021/12/17 00:07:05;;;;;;;10.90;6.82;;;3.90;99.90;;;;;;5089649;28;20160;-67
2021/12/17 00:09:31;;;;;;;10.07;6.40;;;3.90;99.90;;;;;;5089948;28;20160;-70
2021/12/17 00:11:57;;;;;;;10.63;5.77;;;3.90;99.90;;;;;;5089914;28;20419;-70
2021/12/17 00:14:28;;;;;;;13.67;6.40;;;4.00;99.90;;;;;;5089617;28;20454;-68
2021/12/17 00:17:01;;;;;;;12.20;6.88;;;4.00;99.90;;;;;;5070426;28;20177;-69
2021/12/17 00:44:16;;;;;;;10.80;6.57;;;4.40;99.90;;;;;;5069180;28;20232;-66
2021/12/17 00:49:32;;;;;;;6.55;5.90;;;4.50;99.90;;;;;;5069147;28;20223;-68
2021/12/17 00:52:00;;;;;;;13.52;6.55;;;4.50;99.90;;;;;;5051765;28;20182;-69
2021/12/17 00:54:37;;;;;;;7.50;6.50;;;4.60;99.90;;;;;;5068924;28;20302;-67
2021/12/17 00:57:27;;;;;;;16.00;7.78;;;4.60;99.90;;;;;;5051251;28;20240;-68
2021/12/17 00:59:55;;;;;;;9.88;5.40;;;4.70;99.90;;;;;;5068959;28;20161;-69
2021/12/17 01:02:25;;;;;;;8.38;6.60;;;4.60;99.90;;;;;;5069033;28;20169;-67
2021/12/17 01:04:55;;;;;;;11.57;6.70;;;4.50;99.90;;;;;;5051592;28;20185;-67
2021/12/17 01:07:26;;;;;;;5.18;4.60;;;4.50;99.90;;;;;;5068778;28;20268;-67
2021/12/17 01:09:52;;;;;;;7.35;6.57;;;4.50;99.90;;;;;;5068695;28;20162;-70
2021/12/17 01:12:20;;;;;;;8.65;5.50;;;4.50;99.90;;;;;;5069701;28;20165;-67
2021/12/17 01:14:46;;;;;;;9.45;7.63;;;4.50;99.90;;;;;;5069410;28;20280;-68
2021/12/17 01:17:14;;;;;;;8.82;6.25;;;4.50;99.90;;;;;;5088316;28;20172;-68
2021/12/17 01:24:51;;;;;;;9.63;6.75;;;4.50;99.90;;;;;;5088493;28;20286;-68
2021/12/17 01:35:47;;;;;;;8.43;7.35;;;4.60;99.90;;;;;;5088261;28;20242;-68
2021/12/17 01:41:39;;;;;;;10.48;5.85;;;4.70;99.90;;;;;;5057305;28;20216;-68
2021/12/17 01:44:00;;;;;;;9.88;6.80;;;4.60;99.90;;;;;;5087716;28;20189;-67
2021/12/17 01:46:30;;;;;;;10.98;6.05;;;4.80;99.90;;;;;;5087793;28;20207;-69
2021/12/17 01:49:29;;;;;;;8.57;7.22;;;4.80;99.90;;;;;;5088127;28;20161;-70
2021/12/17 02:00:10;;;;;;;7.53;6.47;;;4.60;99.90;;;;;;5070840;28;20175;-69
2021/12/17 02:02:44;;;;;;;9.93;7.13;;;4.60;99.90;;;;;;5087782;28;20273;-66
2021/12/17 02:05:11;;;;;;;6.72;6.07;;;4.50;99.90;;;;;;5087680;28;20199;-71
2021/12/17 02:07:37;;;;;;;6.78;5.85;;;4.60;99.90;;;;;;5069883;28;20165;-69
2021/12/17 02:20:59;;;;;;;8.05;5.50;;;4.60;99.90;;;;;;5067743;28;20176;-68
2021/12/17 02:31:41;;;;;;;8.80;6.63;;;4.80;99.90;;;;;;5067392;28;20315;-70
2021/12/17 02:34:27;;;;;;;8.67;6.40;;;4.80;99.90;;;;;;5067005;28;20198;-67
2021/12/17 02:36:55;;;;;;;9.52;7.13;;;4.90;99.90;;;;;;5067222;28;20512;-68
2021/12/17 02:47:18;;;;;;;7.15;6.45;;;4.90;99.90;;;;;;5066764;28;20212;-65
2021/12/17 02:49:46;;;;;;;7.20;6.00;;;4.90;99.90;;;;;;5066987;28;20439;-69
2021/12/17 02:52:13;;;;;;;11.52;7.53;;;4.90;99.90;;;;;;5067021;28;20239;-68
2021/12/17 02:54:39;;;;;;;8.30;5.75;;;4.90;99.90;;;;;;5066835;28;20309;-70
2021/12/17 02:57:06;;;;;;;9.13;7.82;;;4.80;99.90;;;;;;5066446;28;20189;-67
2021/12/17 02:59:34;;;;;;;9.63;6.93;;;4.90;99.90;;;;;;5066715;28;20387;-68
2021/12/17 03:02:02;;;;;;;12.13;8.10;;;4.90;99.90;;;;;;5066656;28;20255;-71
2021/12/17 03:04:30;;;;;;;12.02;7.07;;;5.00;99.90;;;;;;5066522;28;20202;-67
2021/12/17 03:06:56;;;;;;;13.40;7.20;;;5.00;99.90;;;;;;5066397;28;20188;-68
2021/12/17 03:09:36;;;;;;;8.88;7.20;;;5.00;99.90;;;;;;5066566;28;20213;-69
2021/12/17 03:12:08;;;;;;;9.43;6.55;;;5.00;99.90;;;;;;5066634;28;20438;-68
2021/12/17 03:14:41;;;;;;;8.20;6.35;;;5.10;99.90;;;;;;5066484;28;20258;-68
2021/12/17 03:17:10;;;;;;;11.80;6.30;;;5.10;99.90;;;;;;5086330;28;20168;-68
2021/12/17 03:25:04;;;;;;;9.55;6.78;;;5.10;99.90;;;;;;5086608;28;20223;-69
2021/12/17 03:27:30;;;;;;;11.13;5.07;;;5.10;99.90;;;;;;5086284;28;20263;-69
2021/12/17 03:29:56;;;;;;;8.83;6.80;;;5.10;99.90;;;;;;5086560;28;20173;-69
2021/12/17 03:32:21;;;;;;;8.83;6.50;;;5.10;99.90;;;;;;5086428;28;20284;-66
2021/12/17 03:34:47;;;;;;;7.68;6.82;;;5.10;99.90;;;;;;5068681;28;20320;-70
2021/12/17 03:37:13;;;;;;;7.13;5.73;;;5.10;99.90;;;;;;5086266;28;20300;-68
2021/12/17 03:39:39;;;;;;;5.90;4.90;;;5.10;99.90;;;;;;5070557;28;20198;-69
2021/12/17 03:42:07;;;;;;;9.70;6.73;;;5.10;99.90;;;;;;5090345;28;20182;-69
2021/12/17 03:44:33;;;;;;;10.38;7.20;;;5.20;99.90;;;;;;5090295;28;20194;-70
2021/12/17 03:47:00;;;;;;;11.98;8.15;;;5.20;99.90;;;;;;5089930;28;20164;-70
2021/12/17 03:49:26;;;;;;;7.82;7.05;;;5.30;99.90;;;;;;5090100;28;20188;-68
2021/12/17 03:52:16;;;;;;;9.97;6.77;;;5.20;99.90;;;;;;5090084;28;20199;-69
2021/12/17 03:54:38;;;;;;;7.25;5.35;;;5.30;99.90;;;;;;5089269;28;20241;-70
2021/12/17 03:57:07;;;;;;;10.17;9.10;;;5.30;99.90;;;;;;5089618;28;20171;-69
2021/12/17 03:59:33;;;;;;;8.02;6.22;;;5.30;99.90;;;;;;5089811;28;20400;-68
2021/12/17 04:01:59;;;;;;;9.50;7.40;;;5.30;99.90;;;;;;5089859;28;20170;-68
2021/12/17 04:04:25;;;;;;;8.60;5.90;;;5.40;99.90;;;;;;5089662;28;20243;-70
2021/12/17 04:06:50;;;;;;;9.10;7.20;;;5.40;99.90;;;;;;5072071;28;20303;-70
2021/12/17 04:09:20;;;;;;;8.20;6.70;;;5.40;99.90;;;;;;5091046;28;20184;-67
2021/12/17 04:11:47;;;;;;;8.63;7.03;;;5.30;99.90;;;;;;5089853;28;20197;-69
2021/12/17 04:14:12;;;;;;;8.07;6.53;;;5.40;99.90;;;;;;5089499;28;20300;-67
2021/12/17 04:16:38;;;;;;;7.23;6.23;;;5.40;99.90;;;;;;5072648;28;20186;-68
2021/12/17 04:19:04;;;;;;;10.03;7.87;;;5.40;99.90;;;;;;5069656;28;20423;-66
2021/12/17 04:21:30;;;;;;;8.97;6.43;;;5.40;99.90;;;;;;5052244;28;20428;-69
2021/12/17 04:23:56;;;;;;;9.48;6.10;;;5.30;99.90;;;;;;5069612;28;20219;-67
2021/12/17 04:26:24;;;;;;;7.17;6.30;;;5.40;99.90;;;;;;5069334;28;20321;-68
2021/12/17 04:28:52;;;;;;;9.90;6.32;;;5.40;99.90;;;;;;5069339;28;20162;-67
2021/12/17 04:31:20;;;;;;;9.75;6.82;;;5.40;99.90;;;;;;5069400;28;20184;-66
2021/12/17 04:33:46;;;;;;;11.93;7.63;;;5.40;99.90;;;;;;5069573;28;20337;-68
2021/12/17 04:36:17;;;;;;;14.60;7.57;;;5.40;99.90;;;;;;5069171;28;20242;-68
2021/12/17 04:38:43;;;;;;;6.90;6.22;;;5.40;99.90;;;;;;5051899;28;20635;-68
2021/12/17 04:44:03;;;;;;;16.45;8.35;;;5.40;99.90;;;;;;5069207;28;20244;-67
2021/12/17 04:46:36;;;;;;;9.55;8.38;;;5.40;99.90;;;;;;5069012;28;20171;-68
2021/12/17 04:59:49;;;;;;;12.52;8.07;;;5.30;99.90;;;;;;5052919;28;20208;-69
2021/12/17 05:02:16;;;;;;;8.57;6.80;;;5.40;99.90;;;;;;5068846;28;20157;-67
2021/12/17 05:04:43;;;;;;;6.00;5.40;;;5.30;99.90;;;;;;5069026;28;20397;-69
2021/12/17 05:07:12;;;;;;;11.15;7.40;;;5.30;99.90;;;;;;5068482;28;20167;-68
2021/12/17 05:18:23;;;;;;;17.67;5.13;;;5.50;99.90;;;;;;5088468;28;20460;-69
2021/12/17 05:20:53;;;;;;;8.85;6.60;;;5.40;99.90;;;;;;5088640;28;20224;-69
2021/12/17 05:23:24;;;;;;;11.27;7.20;;;5.50;99.90;;;;;;5088462;28;20185;-69
2021/12/17 05:25:50;;;;;;;11.45;6.95;;;5.50;99.90;;;;;;5088538;28;20270;-67
2021/12/17 05:28:16;;;;;;;10.43;5.90;;;5.50;99.90;;;;;;5088294;28;20169;-69
2021/12/17 05:30:46;;;;;;;9.70;7.03;;;5.50;99.90;;;;;;5089767;28;20173;-68
2021/12/17 05:33:13;;;;;;;11.38;5.28;;;5.50;99.90;;;;;;5088188;28;20575;-67
2021/12/17 05:35:39;;;;;;;13.60;7.07;;;5.50;99.90;;;;;;5088188;28;20201;-68
2021/12/17 05:38:04;;;;;;;9.07;6.63;;;5.50;99.90;;;;;;5087967;28;20283;-69
2021/12/17 05:40:30;;;;;;;10.93;8.00;;;5.50;99.90;;;;;;5088213;28;20161;-67
2021/12/17 05:42:59;;;;;;;8.50;7.53;;;5.50;99.90;;;;;;5088155;28;20400;-69
2021/12/17 05:48:10;;;;;;;10.50;7.00;;;5.50;99.90;;;;;;5075975;28;20176;-69
2021/12/17 05:50:39;;;;;;;7.57;6.80;;;5.50;99.90;;;;;;5076056;28;20190;-66
2021/12/17 05:53:06;;;;;;;10.65;7.70;;;5.50;99.90;;;;;;5077468;28;20314;-67
2021/12/17 05:55:33;;;;;;;10.32;7.25;;;5.40;99.90;;;;;;5067479;28;20449;-68
2021/12/17 05:57:59;;;;;;;7.60;6.65;;;5.40;99.90;;;;;;5067206;28;20177;-69
2021/12/17 06:00:29;;;;;;;8.23;7.40;;;5.40;99.90;;;;;;5067480;28;20176;-70
2021/12/17 06:02:55;;;;;;;9.18;6.90;;;5.30;99.90;;;;;;5066350;28;20444;-68
2021/12/17 06:05:21;;;;;;;8.27;6.15;;;5.30;99.90;;;;;;5049989;28;20166;-67
2021/12/17 06:07:46;;;;;;;12.80;7.90;;;5.40;99.90;;;;;;5067056;28;20168;-67
2021/12/17 06:10:12;;;;;;;15.80;10.07;;;5.40;99.90;;;;;;5067421;28;20318;-67
2021/12/17 06:12:39;;;;;;;9.23;6.78;;;5.30;99.90;;;;;;5067287;28;20163;-67
2021/12/17 06:15:07;;;;;;;10.90;8.63;;;5.30;99.90;;;;;;5070689;28;20220;-68
2021/12/17 06:17:33;;;;;;;10.77;7.50;;;5.30;99.90;;;;;;5069260;28;20187;-67
2021/12/17 06:19:59;;;;;;;8.80;7.13;;;5.30;99.90;;;;;;5087159;28;20174;-68
2021/12/17 06:22:24;;;;;;;7.03;6.33;;;5.30;99.90;;;;;;5086908;28;20431;-70
2021/12/17 06:24:50;;;;;;;8.23;4.93;;;5.30;99.90;;;;;;5086387;28;20210;-69
2021/12/17 06:27:17;;;;;;;9.07;8.13;;;5.30;99.90;;;;;;5086778;28;20354;-67
2021/12/17 06:29:44;;;;;;;8.98;6.82;;;5.30;99.90;;;;;;5087180;28;20243;-70
2021/12/17 06:32:10;;;;;;;12.05;9.02;;;5.30;99.90;;;;;;5087299;28;20170;-65
2021/12/17 06:34:36;;;;;;;10.50;6.53;;;5.30;99.90;;;;;;5069408;28;20200;-67
2021/12/17 06:37:04;;;;;;;9.30;7.70;;;5.30;99.90;;;;;;5086867;28;20184;-66
2021/12/17 06:39:30;;;;;;;10.57;5.95;;;5.30;99.90;;;;;;5086845;28;20170;-68
2021/12/17 06:41:55;;;;;;;15.82;8.35;;;5.30;99.90;;;;;;5087038;28;20161;-67
2021/12/17 06:44:24;;;;;;;8.17;5.80;;;5.40;99.90;;;;;;5086873;28;20447;-66
2021/12/17 06:49:49;;;;;;;10.35;7.63;;;5.50;99.90;;;;;;5086988;28;20206;-67
2021/12/17 07:06:00;;;;;;;13.60;7.97;;;5.50;99.90;;;;;;5065500;28;20235;-66
2021/12/17 07:10:53;;;;;;;7.27;6.00;;;5.60;99.90;;;;;;5066593;28;20394;-66
2021/12/17 07:34:41;;;;;;;5.87;5.30;;;5.80;99.90;;;;;;5090195;28;20176;-68
2021/12/17 07:39:33;;;;;;;6.30;5.00;;;5.90;99.90;;;;;;5090492;28;20173;-68
2021/12/17 07:41:58;;;;;;;6.07;5.47;;;5.90;99.90;;;;;;5090243;28;20184;-66
2021/12/17 07:44:24;;;;;;;6.47;4.60;;;5.90;99.90;;;;;;5090453;28;20409;-66
2021/12/17 07:46:50;;;;;;;6.00;4.17;;;6.00;99.90;;;;;;5089886;28;20165;-67
2021/12/17 07:49:16;;;;;;;6.83;5.47;;;5.90;99.90;;;;;;5090278;28;20191;-66
2021/12/17 07:51:41;;;;;;;8.83;4.63;;;6.00;99.90;;;;;;5090318;28;20400;-67
2021/12/17 07:54:07;;;;;;;7.60;6.33;;;5.90;99.90;;;;;;5089869;28;20177;-64
2021/12/17 07:56:39;;;;;;;12.33;5.93;;;5.90;99.90;;;;;;5089501;28;20181;-67
2021/12/17 07:59:10;;;;;;;11.13;6.28;;;5.80;99.90;;;;;;5090275;28;20158;-66
2021/12/17 08:01:37;;;;;;;6.65;4.80;;;5.70;99.90;;;;;;5090112;28;20161;-67
2021/12/17 08:04:04;;;;;;;4.35;4.05;;;5.60;99.90;;;;;;5089822;28;20201;-67
2021/12/17 08:06:30;;;;;;;5.88;5.07;;;5.50;99.90;;;;;;5089764;28;20203;-67
2021/12/17 08:08:56;;;;;;;7.18;6.47;;;5.50;99.90;;;;;;5089975;28;20271;-67
2021/12/17 08:11:22;;;;;;;6.50;4.83;;;5.50;99.90;;;;;;5089967;28;20172;-67
2021/12/17 08:13:49;;;;;;;8.05;6.63;;;5.60;99.90;;;;;;5089624;28;20249;-67
2021/12/17 08:31:58;;;;;;;6.60;3.75;;;9.00;99.90;;;;;;5069549;28;20216;-67
2021/12/17 08:34:24;;;;;;;6.10;4.60;;;9.70;99.90;;;;;;5069275;28;20207;-69
2021/12/17 08:36:50;;;;;;;5.10;4.10;;;10.50;99.90;;;;;;5068757;28;20393;-67
2021/12/17 08:39:16;;;;;;;4.83;4.33;;;11.30;99.90;;;;;;5068699;28;20216;-68
2021/12/17 08:41:42;;;;;;;5.83;5.33;;;12.00;99.90;;;;;;5067544;28;20431;-69
2021/12/17 08:44:08;;;;;;;5.03;3.87;;;12.60;99.90;;;;;;5068347;28;20537;-69
2021/12/17 08:46:35;;;;;;;4.23;3.83;;;13.00;99.90;;;;;;5067974;28;20453;-68
2021/12/17 08:49:03;;;;;;;5.40;4.13;;;13.50;99.90;;;;;;5068388;28;20421;-69
2021/12/17 08:51:30;;;;;;;4.37;3.93;;;14.00;99.90;;;;;;5068353;28;20438;-70
2021/12/17 08:53:56;;;;;;;4.53;3.50;;;14.40;99.90;;;;;;5068424;28;20519;-68
2021/12/17 08:56:23;;;;;;;4.90;3.97;;;14.90;99.90;;;;;;5068865;28;20537;-69
2021/12/17 08:58:53;;;;;;;3.80;3.10;;;15.30;99.00;;;;;;5068919;28;20414;-68
2021/12/17 09:01:19;;;;;;;4.20;3.63;;;15.50;98.40;;;;;;5069006;28;20426;-69
2021/12/17 09:03:47;;;;;;;3.53;3.20;;;15.70;97.70;;;;;;5051037;28;20483;-69
2021/12/17 09:06:12;;;;;;;3.57;2.90;;;16.00;97.20;;;;;;5069053;28;20546;-70
2021/12/17 09:08:38;;;;;;;3.40;3.10;;;16.10;96.30;;;;;;5051444;28;20412;-69
2021/12/17 09:11:04;;;;;;;2.70;2.20;;;16.20;95.90;;;;;;5068926;28;20170;-69
2021/12/17 09:13:29;;;;;;;7.23;4.33;;;16.30;95.90;;;;;;5068627;28;20190;-68
2021/12/17 09:15:57;;;;;;;4.30;3.20;;;16.30;94.40;;;;;;5079156;28;20219;-69
2021/12/17 09:18:24;;;;;;;4.90;4.40;;;16.30;94.50;;;;;;5088357;28;20167;-69
2021/12/17 09:20:51;;;;;;;3.03;2.67;;;16.50;93.90;;;;;;5088643;28;20406;-68
2021/12/17 09:23:19;;;;;;;3.17;2.87;;;16.80;93.60;;;;;;5088526;28;20418;-69
2021/12/17 09:25:45;;;;;;;4.07;3.57;;;17.10;93.00;;;;;;5088693;28;20498;-68
2021/12/17 09:28:11;;;;;;;3.07;2.87;;;17.10;92.40;;;;;;5087988;28;20415;-69
2021/12/17 09:30:37;;;;;;;3.20;2.90;;;17.10;92.90;;;;;;5088422;28;20179;-67
2021/12/17 09:33:03;;;;;;;3.37;3.07;;;17.30;92.40;;;;;;5088155;28;20384;-69
2021/12/17 09:35:29;;;;;;;6.30;3.00;;;17.60;91.80;;;;;;5088297;28;20387;-67
2021/12/17 09:37:55;;;;;;;2.90;2.70;;;18.00;90.60;;;;;;5088180;28;20176;-69
2021/12/17 09:40:21;;;;;;;2.90;2.53;;;17.80;89.80;;;;;;5088136;28;20460;-69
2021/12/17 09:42:47;;;;;;;3.27;2.97;;;17.60;90.00;;;;;;5088144;28;20385;-69
2021/12/17 09:45:15;;;;;;;2.93;2.73;;;17.10;89.40;;;;;;5088237;28;20562;-69
2021/12/17 09:47:41;;;;;;;2.63;2.40;;;16.80;90.60;;;;;;5087517;28;20494;-68
2021/12/17 09:50:11;;;;;;;2.80;2.50;;;16.70;91.00;;;;;;5088145;28;20609;-68
2021/12/17 09:52:36;;;;;;;3.00;2.80;;;16.90;90.50;;;;;;5087762;28;20408;-68
2021/12/17 09:55:05;;;;;;;3.27;2.97;;;16.80;90.20;;;;;;5087635;28;20463;-68
2021/12/17 09:57:35;;;;;;;3.70;3.20;;;16.60;90.20;;;;;;5087430;28;20194;-68
2021/12/17 10:00:14;;;;;;;3.27;3.03;;;16.40;90.30;;;;;;5087652;28;20416;-68
2021/12/17 10:02:44;;;;;;;3.33;3.03;;;15.80;91.20;;;;;;5087594;28;20385;-67
2021/12/17 10:05:22;;;;;;;4.00;2.80;;;15.70;91.20;;;;;;5087597;28;20411;-67
2021/12/17 10:07:57;;;;;;;3.77;2.97;;;15.70;91.70;;;;;;5087356;28;20489;-68
2021/12/17 10:10:33;;;;;;;3.37;3.10;;;15.60;91.40;;;;;;5087427;28;20425;-67
2021/12/17 10:13:19;;;;;;;4.13;3.80;;;15.10;91.90;;;;;;5087731;28;20449;-68
2021/12/17 10:15:48;;;;;;;3.50;3.10;;;15.00;92.40;;;;;;5077915;28;20455;-67
2021/12/17 10:18:14;;;;;;;3.70;3.40;;;15.10;92.80;;;;;;5067154;28;20435;-69
2021/12/17 10:20:56;;;;;;;3.50;3.20;;;15.20;92.60;;;;;;5067249;28;20424;-66
2021/12/17 10:23:23;;;;;;;3.70;2.50;;;15.30;92.00;;;;;;5052451;28;20417;-67
2021/12/17 10:25:49;;;;;;;3.30;3.00;;;15.40;91.70;;;;;;5067087;28;20400;-67
2021/12/17 10:28:16;;;;;;;3.87;3.53;;;15.30;91.70;;;;;;5066908;28;20562;-68
2021/12/17 10:30:45;;;;;;;2.70;2.50;;;15.20;91.70;;;;;;5066973;28;20375;-68
2021/12/17 10:33:15;;;;;;;3.13;2.83;;;15.10;91.50;;;;;;5073912;28;20434;-67
2021/12/17 10:35:45;;;;;;;3.13;2.93;;;15.00;91.60;;;;;;5078502;28;20588;-67
2021/12/17 10:38:15;;;;;;;2.93;2.70;;;14.80;91.80;;;;;;5085304;28;20427;-68
2021/12/17 10:40:48;;;;;;;3.47;3.17;;;14.70;92.30;;;;;;5087952;28;20694;-66
2021/12/17 10:43:33;;;;;;;4.40;3.67;;;14.50;93.00;;;;;;5087849;28;20438;-67
2021/12/17 10:46:21;;;;;;;4.13;3.03;;;14.10;93.70;;;;;;5087480;28;20403;-68
2021/12/17 10:54:09;;;;;;;4.00;3.27;;;12.90;95.00;;;;;;5087615;28;20403;-67
2021/12/17 10:56:41;;;;;;;4.53;3.20;;;12.30;96.00;;;;;;5069504;28;20414;-68
2021/12/17 10:59:11;;;;;;;5.80;3.70;;;12.10;96.90;;;;;;5087186;28;20422;-68
2021/12/17 11:01:41;;;;;;;3.67;3.30;;;12.00;97.20;;;;;;5087975;28;20474;-68
2021/12/17 11:04:10;;;;;;;4.30;3.20;;;11.70;97.60;;;;;;5087431;28;20545;-68
2021/12/17 11:06:50;;;;;;;5.63;3.47;;;11.40;98.20;;;;;;5086297;28;20446;-69
2021/12/17 11:09:38;;;;;;;4.37;3.80;;;11.10;98.50;;;;;;5069798;28;20633;-70
2021/12/17 11:12:35;;;;;;;5.03;4.33;;;10.60;99.20;;;;;;5086875;28;20432;-68
2021/12/17 11:15:11;;;;;;;6.05;4.15;;;10.10;99.90;;;;;;5083226;28;20464;-69
2021/12/17 11:17:38;;;;;;;5.07;3.80;;;9.60;99.90;;;;;;5066227;28;20173;-69
2021/12/17 11:20:17;;;;;;;4.50;3.78;;;9.30;99.90;;;;;;5066620;28;20201;-68
2021/12/17 11:22:45;;;;;;;5.70;4.47;;;9.10;99.90;;;;;;5066548;28;20227;-67
2021/12/17 11:25:12;;;;;;;4.63;4.07;;;8.80;99.90;;;;;;5066372;28;20289;-66
2021/12/17 11:27:38;;;;;;;5.18;3.60;;;8.70;99.90;;;;;;5066097;28;20161;-67
2021/12/17 11:30:10;;;;;;;4.50;4.10;;;8.60;99.90;;;;;;5066580;28;20192;-67
2021/12/17 11:32:36;;;;;;;4.47;4.05;;;8.40;99.90;;;;;;5066562;28;20173;-68
2021/12/17 11:35:03;;;;;;;3.13;2.80;;;8.40;99.90;;;;;;5066002;28;20329;-69
2021/12/17 11:37:30;;;;;;;3.17;2.90;;;8.40;99.90;;;;;;5066009;28;20165;-68
2021/12/17 11:40:02;;;;;;;4.53;3.55;;;8.40;99.90;;;;;;5066241;28;20220;-69
2021/12/17 11:43:14;;;;;;;6.28;4.28;;;8.30;99.90;;;;;;5066094;28;20149;-69
2021/12/17 11:45:40;;;;;;;5.95;4.63;;;8.30;99.90;;;;;;5066245;28;20165;-68
2021/12/17 11:48:19;;;;;;;7.85;4.72;;;8.40;99.90;;;;;;5048490;28;20266;-70
2021/12/17 11:51:02;;;;;;;5.97;4.40;;;8.40;99.90;;;;;;5066263;28;20321;-67
2021/12/17 11:53:28;;;;;;;5.68;4.65;;;8.30;99.90;;;;;;5066271;28;20189;-67
2021/12/17 11:56:03;;;;;;;4.47;3.60;;;8.30;99.90;;;;;;5065941;28;20208;-69
2021/12/17 11:58:49;;;;;;;3.47;3.17;;;8.30;99.90;;;;;;5065808;28;20196;-67
2021/12/17 12:01:47;;;;;;;3.60;3.20;;;8.30;99.90;;;;;;5068933;28;20245;-69
2021/12/17 12:04:39;;;;;;;3.40;3.15;;;8.40;99.90;;;;;;5069690;28;20325;-67
2021/12/17 12:07:10;;;;;;;10.13;4.60;;;8.30;99.90;;;;;;5069447;28;20195;-67
2021/12/17 12:10:03;;;;;;;4.70;3.60;;;8.40;99.90;;;;;;5069602;28;20182;-70
2021/12/17 12:12:38;;;;;;;5.75;3.45;;;8.40;99.90;;;;;;5069739;28;20161;-68
2021/12/17 12:15:27;;;;;;;3.38;2.83;;;8.40;99.90;;;;;;5073197;28;20211;-70
2021/12/17 12:18:06;;;;;;;4.10;3.17;;;8.40;99.90;;;;;;5089633;28;20283;-69
2021/12/17 12:20:55;;;;;;;3.90;2.72;;;8.40;99.90;;;;;;5089670;28;20168;-68
2021/12/17 12:23:27;;;;;;;4.70;3.65;;;8.40;99.90;;;;;;5089528;28;20265;-68
2021/12/17 12:26:05;;;;;;;5.38;3.72;;;8.50;99.90;;;;;;5089397;28;20273;-67
2021/12/17 12:28:46;;;;;;;4.82;3.40;;;8.50;99.90;;;;;;5089150;28;20171;-67
2021/12/17 12:31:17;;;;;;;4.07;3.15;;;8.50;99.90;;;;;;5089381;28;20177;-68
2021/12/17 12:34:15;;;;;;;3.47;3.20;;;8.50;99.90;;;;;;5089377;28;20191;-67
2021/12/17 12:36:57;;;;;;;2.78;2.15;;;8.50;99.90;;;;;;5073118;28;20267;-68
2021/12/17 12:39:32;;;;;;;6.75;3.22;;;8.60;99.90;;;;;;5091027;28;20377;-70
2021/12/17 12:41:59;;;;;;;4.35;3.95;;;8.60;99.90;;;;;;5089344;28;20198;-68
2021/12/17 12:44:47;;;;;;;3.42;3.13;;;8.60;99.90;;;;;;5089109;28;20222;-68
2021/12/17 12:47:30;;;;;;;3.63;2.92;;;8.60;99.90;;;;;;5088847;28;20163;-67
2021/12/17 12:50:20;;;;;;;4.35;3.75;;;8.60;99.90;;;;;;5089154;28;20187;-71
2021/12/17 12:52:52;;;;;;;6.68;4.22;;;8.60;99.90;;;;;;5088857;28;20226;-70
2021/12/17 12:55:36;;;;;;;4.13;3.60;;;8.60;99.90;;;;;;5088851;28;20203;-69
2021/12/17 12:58:15;;;;;;;3.70;3.40;;;8.70;99.90;;;;;;5088690;28;20188;-69
2021/12/17 13:00:46;;;;;;;5.88;4.28;;;8.70;99.90;;;;;;5088728;28;20173;-68
2021/12/17 13:03:18;;;;;;;4.13;2.92;;;8.70;99.90;;;;;;5088568;28;20246;-70
2021/12/17 13:05:47;;;;;;;4.18;3.22;;;8.70;99.90;;;;;;5088703;28;20164;-70
2021/12/17 13:08:14;;;;;;;4.93;3.58;;;8.80;99.90;;;;;;5088432;28;20209;-71
2021/12/17 13:10:44;;;;;;;3.00;2.80;;;8.80;99.90;;;;;;5088321;28;20168;-68
2021/12/17 13:24:09;;;;;;;3.20;2.78;;;8.70;99.90;;;;;;5068287;28;20417;-69
2021/12/17 13:26:37;;;;;;;3.72;3.30;;;8.70;99.90;;;;;;5073390;28;20337;-67
2021/12/17 13:29:14;;;;;;;4.88;2.65;;;8.70;99.90;;;;;;5088296;27;20214;-68
2021/12/17 13:31:44;;;;;;;5.10;3.30;;;8.70;99.90;;;;;;5088442;28;20184;-68
2021/12/17 13:34:26;;;;;;;5.43;3.03;;;8.70;99.90;;;;;;5088115;28;20302;-69
2021/12/17 13:37:30;;;;;;;3.00;2.80;;;8.70;99.90;;;;;;5087716;28;20326;-67
2021/12/17 13:39:59;;;;;;;4.15;3.75;;;8.70;99.90;;;;;;5083136;28;20279;-69
2021/12/17 13:42:51;;;;;;;4.20;2.53;;;8.70;99.90;;;;;;5088024;28;20160;-68
2021/12/17 13:45:21;;;;;;;5.32;3.30;;;8.70;99.90;;;;;;5083114;28;20193;-69
2021/12/17 13:47:47;;;;;;;3.33;2.80;;;8.70;99.90;;;;;;5087375;28;20209;-71
2021/12/17 13:50:24;;;;;;;3.55;3.25;;;8.70;99.90;;;;;;5087636;28;20157;-70
2021/12/17 13:52:59;;;;;;;3.40;3.08;;;8.70;99.90;;;;;;5087654;28;20179;-70
2021/12/17 13:55:37;;;;;;;6.78;3.40;;;8.70;99.90;;;;;;5069143;28;20214;-69
2021/12/17 13:58:11;;;;;;;5.68;3.78;;;8.70;99.90;;;;;;5085695;28;20172;-69
2021/12/17 14:00:42;;;;;;;3.80;2.33;;;8.70;99.90;;;;;;5087171;28;20169;-69
2021/12/17 14:03:14;;;;;;;3.65;3.15;;;8.60;99.90;;;;;;5087326;28;20194;-70
2021/12/17 14:05:41;;;;;;;4.63;3.50;;;8.60;99.90;;;;;;5087539;28;20164;-69
2021/12/17 14:08:11;;;;;;;4.85;3.75;;;8.50;99.90;;;;;;5087255;28;20173;-69
2021/12/17 14:10:38;;;;;;;7.53;5.35;;;8.40;99.90;;;;;;5086055;28;20434;-68
2021/12/17 14:13:14;;;;;;;9.10;4.00;;;8.30;99.90;;;;;;5085521;28;20231;-70
2021/12/17 14:15:41;;;;;;;4.18;3.20;;;8.20;99.90;;;;;;5076800;28;20231;-69
2021/12/17 14:18:09;;;;;;;4.30;3.50;;;8.20;99.90;;;;;;5065199;28;20165;-70
2021/12/17 14:20:40;;;;;;;6.63;3.60;;;8.10;99.90;;;;;;5065402;28;20264;-69
2021/12/17 14:23:16;;;;;;;5.38;4.00;;;7.90;99.90;;;;;;5064578;28;20181;-69
2021/12/17 14:25:55;;;;;;;4.63;4.20;;;7.80;99.90;;;;;;5047613;28;20176;-70
2021/12/17 14:28:25;;;;;;;5.78;4.00;;;7.80;99.90;;;;;;5065009;28;20336;-70
2021/12/17 14:31:16;;;;;;;6.35;4.32;;;7.70;99.90;;;;;;5065278;28;20168;-70
2021/12/17 14:33:52;;;;;;;6.18;5.57;;;7.70;99.90;;;;;;5047764;28;20320;-69
2021/12/17 14:36:19;;;;;;;8.90;5.35;;;7.60;99.90;;;;;;5065861;28;20276;-71
2021/12/17 14:38:58;;;;;;;5.18;4.70;;;7.60;99.90;;;;;;5050413;28;20165;-71
2021/12/17 14:41:43;;;;;;;6.47;5.30;;;7.60;99.90;;;;;;5066989;28;20156;-71
2021/12/17 14:44:33;;;;;;;9.73;3.67;;;7.50;99.90;;;;;;5066716;28;20200;-69
2021/12/17 14:47:06;;;;;;;7.05;5.22;;;7.50;99.90;;;;;;5066292;28;20396;-69
2021/12/17 15:05:17;;;;;;;9.20;6.07;;;7.40;99.90;;;;;;5066995;28;20174;-70
2021/12/17 15:07:43;;;;;;;7.20;6.18;;;7.40;99.90;;;;;;5066409;28;20176;-70
2021/12/17 15:10:12;;;;;;;7.60;5.73;;;7.40;99.90;;;;;;5066621;28;20243;-68
2021/12/17 15:12:38;;;;;;;6.70;5.70;;;7.40;99.90;;;;;;5066640;28;20392;-69
2021/12/17 15:15:26;;;;;;;10.07;6.72;;;7.30;99.90;;;;;;5070297;28;20235;-70
2021/12/17 15:17:54;;;;;;;12.15;7.35;;;7.30;99.90;;;;;;5086418;28;20372;-71
2021/12/17 15:20:31;;;;;;;7.07;5.45;;;7.30;99.90;;;;;;5064287;28;20206;-71
2021/12/17 15:22:58;;;;;;;8.13;7.00;;;7.20;99.90;;;;;;5069102;28;20310;-70
2021/12/17 15:25:24;;;;;;;11.57;6.18;;;7.20;99.90;;;;;;5089860;28;20171;-68
2021/12/17 15:27:51;;;;;;;8.50;5.50;;;7.20;99.90;;;;;;5106388;27;20379;-70
2021/12/17 15:30:28;;;;;;;8.23;7.32;;;7.10;99.90;;;;;;5106764;27;20399;-69
2021/12/17 15:32:54;;;;;;;8.23;5.97;;;7.10;99.90;;;;;;5106662;27;20185;-67
2021/12/17 15:35:23;;;;;;;7.60;6.10;;;7.10;99.90;;;;;;5109513;27;20206;-73
2021/12/17 15:37:50;;;;;;;10.15;6.25;;;7.10;99.90;;;;;;5104896;27;20159;-69
2021/12/17 15:40:16;;;;;;;10.30;6.30;;;7.10;99.90;;;;;;5072801;28;20171;-69
2021/12/17 15:42:42;;;;;;;9.20;6.47;;;7.10;99.90;;;;;;5090165;28;20294;-72
2021/12/17 15:45:09;;;;;;;7.80;6.97;;;7.10;99.90;;;;;;5089583;28;20237;-66
2021/12/17 15:47:35;;;;;;;7.53;5.35;;;7.00;99.90;;;;;;5072331;28;20416;-68
2021/12/17 15:50:02;;;;;;;5.27;4.87;;;7.00;99.90;;;;;;5090081;28;20188;-64
2021/12/17 15:52:28;;;;;;;6.75;6.10;;;7.00;99.90;;;;;;5090500;28;20511;-68
2021/12/17 15:54:54;;;;;;;5.90;5.27;;;7.00;99.90;;;;;;5090166;28;20276;-64
2021/12/17 15:57:19;;;;;;;7.10;6.00;;;7.00;99.90;;;;;;5089884;28;20256;-66
2021/12/17 15:59:48;;;;;;;8.23;5.20;;;7.00;99.90;;;;;;5090096;28;20210;-72
2021/12/17 16:02:18;;;;;;;6.28;5.78;;;7.00;99.90;;;;;;5089793;28;20160;-70
2021/12/17 16:04:45;;;;;;;6.15;5.65;;;7.00;99.90;;;;;;5089775;28;20230;-71
2021/12/17 16:07:13;;;;;;;8.38;5.63;;;7.00;99.90;;;;;;5089502;28;20273;-70
2021/12/17 16:10:30;;;;;;;6.25;4.88;;;7.00;99.90;;;;;;5089787;28;20172;-65
2021/12/17 16:23:24;;;;;;;6.13;4.57;;;6.80;99.90;;;;;;5089616;28;20285;-65
2021/12/17 16:25:49;;;;;;;8.30;5.40;;;6.80;99.90;;;;;;5089475;28;20172;-66
2021/12/17 16:28:15;;;;;;;7.57;6.77;;;6.80;99.90;;;;;;5089151;28;20246;-65
2021/12/17 16:30:41;;;;;;;6.73;5.50;;;6.70;99.90;;;;;;5087422;28;20193;-66
2021/12/17 16:33:07;;;;;;;8.83;4.33;;;6.70;99.90;;;;;;5089369;28;20191;-65
2021/12/17 16:35:32;;;;;;;9.93;5.17;;;6.70;99.90;;;;;;5089287;28;20424;-69
2021/12/17 16:37:58;;;;;;;8.63;6.13;;;6.70;99.90;;;;;;5088709;28;20174;-70
2021/12/17 16:40:24;;;;;;;6.90;5.70;;;6.70;99.90;;;;;;5089475;28;20613;-68
2021/12/17 16:42:52;;;;;;;6.00;4.23;;;6.70;99.90;;;;;;5054849;28;20218;-70
2021/12/17 16:45:31;;;;;;;6.93;6.00;;;6.60;99.90;;;;;;5088537;28;20182;-71
2021/12/17 16:48:02;;;;;;;5.63;5.03;;;6.60;99.90;;;;;;5088847;28;20353;-66